createdAt,value
2023-01-13T00:00:10.036Z,100072.81
2023-01-13T00:02:36.921Z,100074.59
2023-01-13T00:05:04.245Z,100084.91
2023-01-13T00:07:31.132Z,100073.25
2023-01-13T00:09:57.909Z,100079.84
2023-01-13T00:12:24.733Z,100083.13
2023-01-13T00:14:51.581Z,100085.34
2023-01-13T00:17:18.479Z,100086.44
2023-01-13T00:19:46.581Z,100082.25
2023-01-13T00:22:13.527Z,100070.63
2023-01-13T00:24:40.337Z,100079.84
2023-01-13T00:27:07.165Z,100066.25
2023-01-13T00:29:34.019Z,100077.31
2023-01-13T00:32:00.834Z,100079.06
2023-01-13T00:34:27.598Z,100078.19
2023-01-13T00:36:54.442Z,100075.03
2023-01-13T00:39:21.247Z,100071.50
2023-01-13T00:42:06.745Z,100072.41
2023-01-13T00:44:33.537Z,100068.44
2023-01-13T00:47:00.927Z,100069.09
2023-01-13T00:49:27.662Z,100084.34
2023-01-13T00:51:54.515Z,100070.16
2023-01-13T00:54:21.534Z,100061.63
2023-01-13T00:56:48.291Z,100061.41
2023-01-13T00:59:15.267Z,100061.63
2023-01-13T01:01:42.345Z,100054.84
2023-01-13T01:04:09.247Z,100048.03
2023-01-13T01:06:36.072Z,100049.00
2023-01-13T01:09:03.049Z,100046.50
2023-01-13T01:11:32.045Z,100042.22
2023-01-13T01:14:01.734Z,100029.63
2023-01-13T01:16:30.810Z,100024.56
2023-01-13T01:18:58.681Z,100025.53
2023-01-13T01:21:27.500Z,100017.97
2023-01-13T01:23:55.405Z,100021.69
2023-01-13T01:26:24.821Z,100019.72
2023-01-13T01:28:52.151Z,100022.34
2023-01-13T01:31:23.329Z,100028.25
2023-01-13T01:33:50.649Z,100022.44
2023-01-13T01:36:19.946Z,100026.53
2023-01-13T01:38:48.177Z,100023.22
2023-01-13T01:41:17.867Z,100016.44
2023-01-13T01:44:02.843Z,100007.31
2023-01-13T01:46:51.894Z,100003.91
2023-01-13T01:49:26.378Z,100020.91
2023-01-13T01:52:04.149Z,100014.00
2023-01-13T01:54:40.349Z,99997.91
2023-01-13T01:57:11.420Z,100003.03
2023-01-13T01:59:39.697Z,99994.00
2023-01-13T02:02:07.252Z,99979.56
2023-01-13T02:04:39.720Z,99966.19
2023-01-13T02:07:07.213Z,99962.66
2023-01-13T02:09:36.051Z,99956.09
2023-01-13T02:12:21.374Z,99972.00
2023-01-13T02:14:48.265Z,99964.63
2023-01-13T02:17:21.145Z,99976.47
2023-01-13T02:20:29.036Z,99986.56
2023-01-13T02:23:52.050Z,99970.06
2023-01-13T02:26:21.815Z,99971.72
2023-01-13T02:29:19.287Z,99991.81
2023-01-13T02:31:50.074Z,99985.00
2023-01-13T02:34:26.235Z,99982.69
2023-01-13T02:37:07.395Z,99979.78
2023-01-13T02:39:59.632Z,99974.38
2023-01-13T02:42:52.684Z,99970.34
2023-01-13T02:45:25.023Z,99966.19
2023-01-13T02:47:55.914Z,99988.88
2023-01-13T02:50:29.557Z,99992.19
2023-01-13T02:53:01.350Z,99991.84
2023-01-13T02:55:35.413Z,99976.06
2023-01-13T02:58:06.448Z,99979.56
2023-01-13T03:00:35.332Z,99987.88
2023-01-13T03:03:02.370Z,99979.16
2023-01-13T03:05:32.343Z,99974.97
2023-01-13T03:08:02.009Z,100000.00
2023-01-13T03:10:37.862Z,99982.66
2023-01-13T03:13:19.400Z,99986.91
2023-01-13T03:16:13.784Z,99973.66
2023-01-13T03:18:43.271Z,99997.78
2023-01-13T03:21:23.923Z,99976.41
2023-01-13T03:23:54.062Z,99983.97
2023-01-13T03:26:28.642Z,99972.91
2023-01-13T03:29:09.039Z,99980.28
2023-01-13T03:31:41.992Z,99978.72
2023-01-13T03:34:15.618Z,99976.97
2023-01-13T03:36:47.493Z,99983.78
2023-01-13T03:39:20.176Z,99980.28
2023-01-13T03:41:57.325Z,99973.28
2023-01-13T03:44:35.770Z,99971.72
2023-01-13T03:47:11.551Z,99962.63
2023-01-13T03:49:40.867Z,99958.13
2023-01-13T03:52:11.474Z,99959.31
2023-01-13T03:54:51.088Z,99964.28
2023-01-13T03:57:23.152Z,99963.19
2023-01-13T03:59:55.304Z,99970.06
2023-01-13T04:02:56.350Z,99987.84
2023-01-13T04:05:23.464Z,99996.72
2023-01-13T04:07:53.666Z,99982.56
2023-01-13T04:10:28.198Z,99985.09
2023-01-13T04:13:05.831Z,99985.31
2023-01-13T04:15:40.240Z,99986.19
2023-01-13T04:18:13.185Z,99987.06
2023-01-13T04:20:41.545Z,99975.00
2023-01-13T04:23:08.880Z,99974.34
2023-01-13T04:25:36.231Z,99971.91
2023-01-13T04:28:03.259Z,99974.44
2023-01-13T04:30:30.084Z,99979.28
2023-01-13T04:32:56.827Z,99970.94
2023-01-13T04:35:23.784Z,99978.50
2023-01-13T04:37:50.552Z,99981.59
2023-01-13T04:40:17.843Z,99969.97
2023-01-13T04:42:45.244Z,99986.88
2023-01-13T04:45:13.152Z,99991.13
2023-01-13T04:47:41.896Z,99997.59
2023-01-13T04:50:09.823Z,99982.47
2023-01-13T04:52:36.680Z,99990.13
2023-01-13T04:55:03.874Z,99986.88
2023-01-13T04:57:31.051Z,99978.31
2023-01-13T04:59:57.790Z,99979.28
2023-01-13T05:02:24.530Z,99976.78
2023-01-13T05:04:51.302Z,99987.84
2023-01-13T05:07:18.525Z,99991.13
2023-01-13T05:09:45.275Z,99993.63
2023-01-13T05:12:30.481Z,100001.22
2023-01-13T05:15:15.640Z,100009.75
2023-01-13T05:17:43.394Z,100007.03
2023-01-13T05:20:10.916Z,100002.88
2023-01-13T05:22:56.587Z,100009.69
2023-01-13T05:25:25.335Z,100015.38
2023-01-13T05:27:57.643Z,100018.00
2023-01-13T05:30:30.463Z,100007.22
2023-01-13T05:32:57.531Z,100003.09
2023-01-13T05:35:25.058Z,100005.28
2023-01-13T05:37:51.848Z,100005.28
2023-01-13T05:40:39.583Z,100009.75
2023-01-13T05:43:25.737Z,100014.03
2023-01-13T05:46:04.419Z,100014.03
2023-01-13T05:48:38.439Z,100013.28
2023-01-13T05:51:07.955Z,99997.34
2023-01-13T05:53:34.891Z,100017.31
2023-01-13T05:56:05.246Z,100013.06
2023-01-13T05:58:32.099Z,100000.34
2023-01-13T06:01:07.427Z,100018.88
2023-01-13T06:03:34.712Z,100012.09
2023-01-13T06:06:03.844Z,100012.28
2023-01-13T06:08:31.661Z,100014.91
2023-01-13T06:10:58.461Z,100007.22
2023-01-13T06:13:25.860Z,100004.94
2023-01-13T06:15:57.067Z,100001.53
2023-01-13T06:18:24.359Z,100007.44
2023-01-13T06:20:51.199Z,100006.59
2023-01-13T06:23:17.917Z,100004.06
2023-01-13T06:26:00.459Z,99997.34
2023-01-13T06:28:27.356Z,100000.44
2023-01-13T06:30:58.912Z,100004.16
2023-01-13T06:33:32.983Z,100002.88
2023-01-13T06:36:04.426Z,100002.19
2023-01-13T06:38:35.066Z,100001.53
2023-01-13T06:41:02.327Z,100000.78
2023-01-13T06:43:29.065Z,100000.84
2023-01-13T06:45:56.799Z,100000.66
2023-01-13T06:48:27.993Z,100007.88
2023-01-13T06:50:54.803Z,100002.41
2023-01-13T06:53:21.717Z,99994.63
2023-01-13T06:55:48.428Z,99998.91
2023-01-13T06:58:15.341Z,100003.38
2023-01-13T07:00:42.126Z,100004.16
2023-01-13T07:03:10.151Z,99987.25
2023-01-13T07:05:37.712Z,99993.84
2023-01-13T07:08:04.751Z,99993.00
2023-01-13T07:10:32.684Z,99994.84
2023-01-13T07:13:22.583Z,100010.88
2023-01-13T07:15:57.667Z,100006.13
2023-01-13T07:18:27.415Z,99999.34
2023-01-13T07:21:08.095Z,99996.03
2023-01-13T07:23:37.474Z,100003.59
2023-01-13T07:26:05.855Z,100011.28
2023-01-13T07:28:33.046Z,100012.72
2023-01-13T07:31:00.566Z,99984.75
2023-01-13T07:33:27.550Z,100013.47
2023-01-13T07:36:02.561Z,100010.06
2023-01-13T07:38:30.251Z,100013.28
2023-01-13T07:40:57.134Z,100009.31
2023-01-13T07:43:33.045Z,100014.47
2023-01-13T07:46:05.063Z,100019.06
2023-01-13T07:48:34.334Z,100016.66
2023-01-13T07:51:06.689Z,100018.16
2023-01-13T07:53:33.979Z,100020.16
2023-01-13T07:56:02.243Z,100020.91
2023-01-13T07:58:30.127Z,100021.22
2023-01-13T08:00:57.923Z,100025.19
2023-01-13T08:03:26.449Z,100019.69
2023-01-13T08:05:53.326Z,100015.72
2023-01-13T08:08:20.388Z,100022.31
2023-01-13T08:10:47.148Z,100021.53
2023-01-13T08:13:18.388Z,100028.00
2023-01-13T08:15:46.880Z,100029.56
2023-01-13T08:18:14.475Z,100008.28
2023-01-13T08:20:41.728Z,100018.38
2023-01-13T08:23:08.628Z,100013.56
2023-01-13T08:25:35.625Z,100021.34
2023-01-13T08:28:02.431Z,100029.78
2023-01-13T08:30:29.687Z,100025.59
2023-01-13T08:32:56.869Z,100014.63
2023-01-13T08:35:23.945Z,100029.09
2023-01-13T08:37:51.379Z,100028.56
2023-01-13T08:40:19.364Z,100031.84
2023-01-13T08:42:48.514Z,100027.13
2023-01-13T08:45:15.649Z,100019.63
2023-01-13T08:47:42.424Z,100019.44
2023-01-13T08:50:11.198Z,100016.59
2023-01-13T08:52:37.947Z,100007.34
2023-01-13T08:55:05.012Z,100015.03
2023-01-13T08:57:31.904Z,100016.13
2023-01-13T08:59:58.800Z,100007.91
2023-01-13T09:02:27.115Z,100008.66
2023-01-13T09:04:55.349Z,100002.75
2023-01-13T09:07:22.410Z,100011.06
2023-01-13T09:09:49.162Z,99997.91
2023-01-13T09:12:35.126Z,99996.81
2023-01-13T09:15:02.495Z,99993.09
2023-01-13T09:17:30.685Z,99989.69
2023-01-13T09:19:57.478Z,99985.31
2023-01-13T09:22:27.061Z,99993.56
2023-01-13T09:24:55.295Z,99977.66
2023-01-13T09:27:23.675Z,99983.00
2023-01-13T09:29:50.635Z,99969.22
2023-01-13T09:32:17.409Z,99967.66
2023-01-13T09:35:02.842Z,99968.75
2023-01-13T09:37:34.749Z,99988.34
2023-01-13T09:40:02.807Z,99977.06
2023-01-13T09:43:13.328Z,99963.69
2023-01-13T09:45:49.641Z,99964.66
2023-01-13T09:48:23.564Z,99970.91
2023-01-13T09:51:09.752Z,99963.53
2023-01-13T09:53:46.015Z,99968.22
2023-01-13T09:56:12.899Z,99967.78
2023-01-13T09:58:39.948Z,99968.94
2023-01-13T10:01:19.012Z,99969.34
2023-01-13T10:03:45.988Z,99974.41
2023-01-13T10:06:26.877Z,99979.53
2023-01-13T10:08:53.693Z,99973.75
2023-01-13T10:11:41.626Z,99969.78
2023-01-13T10:14:33.687Z,99973.06
2023-01-13T10:17:05.546Z,99970.06
2023-01-13T10:19:44.540Z,99976.97
2023-01-13T10:22:54.755Z,99966.28
2023-01-13T10:25:36.463Z,99970.16
2023-01-13T10:28:11.087Z,99960.81
2023-01-13T10:30:42.063Z,99975.78
2023-01-13T10:33:13.615Z,99967.13
2023-01-13T10:36:12.414Z,99969.78
2023-01-13T10:38:40.709Z,99960.94
2023-01-13T10:41:18.266Z,99978.91
2023-01-13T10:43:58.253Z,99977.16
2023-01-13T10:46:25.542Z,99978.06
2023-01-13T10:48:55.996Z,99975.72
2023-01-13T10:51:38.149Z,99965.06
2023-01-13T10:54:13.908Z,99976.03
2023-01-13T10:56:43.273Z,99975.81
2023-01-13T10:59:22.401Z,99987.84
2023-01-13T11:02:24.863Z,99983.00
2023-01-13T11:05:02.906Z,99986.13
2023-01-13T11:07:40.413Z,99987.19
2023-01-13T11:10:10.188Z,99985.66
2023-01-13T11:12:53.780Z,99980.38
2023-01-13T11:16:00.076Z,99984.78
2023-01-13T11:18:40.174Z,99980.50
2023-01-13T11:21:17.477Z,99970.75
2023-01-13T11:23:50.467Z,99977.75
2023-01-13T11:26:24.084Z,99977.19
2023-01-13T11:28:55.157Z,99977.75
2023-01-13T11:31:38.147Z,99995.34
2023-01-13T11:34:25.980Z,99974.00
2023-01-13T11:36:56.883Z,99982.16
2023-01-13T11:39:30.120Z,99972.53
2023-01-13T11:42:20.633Z,99993.13
2023-01-13T11:45:22.768Z,99973.88
2023-01-13T11:47:51.176Z,99983.22
2023-01-13T11:50:36.378Z,99987.69
2023-01-13T11:53:30.926Z,99995.63
2023-01-13T11:56:20.038Z,99988.44
2023-01-13T11:59:27.050Z,99981.06
2023-01-13T12:02:31.766Z,99989.63
2023-01-13T12:05:17.274Z,99981.28
2023-01-13T12:08:18.192Z,99985.84
2023-01-13T12:10:54.950Z,99986.63
2023-01-13T12:13:52.121Z,99996.06
2023-01-13T12:16:28.584Z,99990.22
2023-01-13T12:19:13.648Z,99996.59
2023-01-13T12:22:12.637Z,99990.81
2023-01-13T12:24:51.063Z,99994.09
2023-01-13T12:27:59.102Z,99998.75
2023-01-13T12:30:37.090Z,100009.22
2023-01-13T12:33:26.064Z,100017.03
2023-01-13T12:36:01.196Z,100005.94
2023-01-13T12:38:42.155Z,100012.56
2023-01-13T12:41:29.452Z,100003.44
2023-01-13T12:44:16.305Z,100002.56
2023-01-13T12:46:54.463Z,99993.31
2023-01-13T12:49:35.416Z,100012.66
2023-01-13T12:52:14.356Z,100003.63
2023-01-13T12:54:41.114Z,100010.91
2023-01-13T12:57:16.896Z,100017.59
2023-01-13T13:00:03.603Z,100010.31
2023-01-13T13:02:37.943Z,100013.63
2023-01-13T13:05:22.859Z,100018.97
2023-01-13T13:08:05.938Z,100025.56
2023-01-13T13:10:37.551Z,100019.34
2023-01-13T13:13:20.255Z,100011.00
2023-01-13T13:15:48.787Z,100010.13
2023-01-13T13:18:19.603Z,100020.53
2023-01-13T13:20:58.855Z,100014.03
2023-01-13T13:23:37.333Z,100027.50
2023-01-13T13:26:23.867Z,100024.91
2023-01-13T13:29:15.329Z,100031.03
2023-01-13T13:31:55.764Z,100018.56
2023-01-13T13:34:34.296Z,100021.50
2023-01-13T13:37:58.456Z,100030.84
2023-01-13T13:40:44.687Z,100028.47
2023-01-13T13:43:33.273Z,100030.53
2023-01-13T13:46:21.898Z,100030.63
2023-01-13T13:48:55.420Z,100025.78
2023-01-13T13:51:25.409Z,100033.47
2023-01-13T13:53:52.878Z,100046.00
2023-01-13T13:56:24.706Z,100046.38
2023-01-13T13:58:53.110Z,100039.38
2023-01-13T14:01:35.309Z,100045.41
2023-01-13T14:04:07.334Z,100041.16
2023-01-13T14:06:34.313Z,100042.66
2023-01-13T14:09:03.662Z,100043.84
2023-01-13T14:11:33.537Z,100040.56
2023-01-13T14:14:12.969Z,100043.31
2023-01-13T14:16:41.025Z,100033.84
2023-01-13T14:19:36.047Z,100033.38
2023-01-13T14:22:04.903Z,100038.25
2023-01-13T14:24:32.840Z,100038.44
2023-01-13T14:27:17.108Z,100030.47
2023-01-13T14:29:44.649Z,100036.09
2023-01-13T14:32:17.603Z,100038.84
2023-01-13T14:34:44.891Z,100039.59
2023-01-13T14:37:26.741Z,100036.59
2023-01-13T14:39:53.407Z,100033.53
2023-01-13T14:42:21.645Z,100027.84
2023-01-13T14:44:51.525Z,100023.69
2023-01-13T14:47:29.739Z,100028.91
2023-01-13T14:50:05.078Z,100041.00
2023-01-13T14:52:36.083Z,100029.13
2023-01-13T14:55:05.790Z,100031.25
2023-01-13T14:57:41.574Z,100040.88
2023-01-13T15:00:14.455Z,100035.44
2023-01-13T15:02:53.793Z,100043.28
2023-01-13T15:05:20.622Z,100044.56
2023-01-13T15:08:02.253Z,100041.56
2023-01-13T15:10:49.979Z,100045.63
2023-01-13T15:13:42.904Z,100046.34
2023-01-13T15:16:21.156Z,100039.50
2023-01-13T15:18:48.360Z,100043.50
2023-01-13T15:21:18.589Z,100046.81
2023-01-13T15:23:47.240Z,100045.91
2023-01-13T15:26:21.094Z,100051.28
2023-01-13T15:28:48.741Z,100057.50
2023-01-13T15:31:15.884Z,100060.16
2023-01-13T15:33:43.271Z,100041.75
2023-01-13T15:36:31.391Z,100041.84
2023-01-13T15:39:00.197Z,100032.63
2023-01-13T15:41:45.388Z,100031.53
2023-01-13T15:44:32.680Z,100027.19
2023-01-13T15:47:06.507Z,100039.94
2023-01-13T15:49:37.885Z,100034.88
2023-01-13T15:52:16.037Z,100028.91
2023-01-13T15:54:42.790Z,100029.81
2023-01-13T15:57:22.168Z,100034.38
2023-01-13T15:59:50.085Z,100025.72
2023-01-13T16:02:18.420Z,100019.88
2023-01-13T16:04:45.732Z,100025.81
2023-01-13T16:07:16.245Z,100019.09
2023-01-13T16:09:43.369Z,100015.88
2023-01-13T16:12:10.109Z,100007.53
2023-01-13T16:14:37.167Z,100015.72
2023-01-13T16:17:12.715Z,100023.38
2023-01-13T16:19:40.783Z,100020.94
2023-01-13T16:22:10.177Z,100015.88
2023-01-13T16:24:37.289Z,100007.13
2023-01-13T16:27:33.195Z,100010.84
2023-01-13T16:30:00.084Z,100003.16
2023-01-13T16:32:26.958Z,100005.78
2023-01-13T16:34:53.811Z,100012.59
2023-01-13T16:37:27.175Z,100019.38
2023-01-13T16:39:54.452Z,100022.00
2023-01-13T16:42:21.765Z,100013.56
2023-01-13T16:44:49.786Z,100014.84
2023-01-13T16:47:18.489Z,100029.97
2023-01-13T16:49:46.216Z,100019.75
2023-01-13T16:52:13.169Z,100028.53
2023-01-13T16:54:40.035Z,100029.03
2023-01-13T16:57:07.881Z,100012.09
2023-01-13T16:59:34.692Z,100016.19
2023-01-13T17:02:02.147Z,100012.81
2023-01-13T17:04:29.186Z,100013.66
2023-01-13T17:07:06.520Z,100007.91
2023-01-13T17:09:33.828Z,100011.03
2023-01-13T17:12:00.649Z,100013.56
2023-01-13T17:14:27.510Z,100014.44
2023-01-13T17:16:58.526Z,100024.44
2023-01-13T17:19:25.866Z,100017.06
2023-01-13T17:21:52.849Z,100022.22
2023-01-13T17:24:20.295Z,100018.03
2023-01-13T17:26:50.228Z,100014.72
2023-01-13T17:29:23.026Z,100030.66
2023-01-13T17:31:53.123Z,100013.75
2023-01-13T17:34:21.185Z,100024.44
2023-01-13T17:36:48.463Z,100012.97
2023-01-13T17:39:20.659Z,100013.94
2023-01-13T17:41:47.612Z,100014.72
2023-01-13T17:44:16.010Z,100023.09
2023-01-13T17:46:43.309Z,100014.72
2023-01-13T17:49:14.229Z,100018.22
2023-01-13T17:51:41.297Z,100028.13
2023-01-13T17:54:12.276Z,100019.78
2023-01-13T17:56:40.587Z,100018.13
2023-01-13T17:59:10.100Z,100012.97
2023-01-13T18:01:37.836Z,100023.09
2023-01-13T18:04:06.559Z,100024.84
2023-01-13T18:06:33.755Z,100030.09
2023-01-13T18:09:01.075Z,100029.91
2023-01-13T18:11:28.234Z,100027.47
2023-01-13T18:14:00.318Z,100032.63
2023-01-13T18:16:30.345Z,100029.41
2023-01-13T18:19:19.133Z,100032.69
2023-01-13T18:22:05.807Z,100021.72
2023-01-13T18:24:51.820Z,100024.25
2023-01-13T18:27:23.826Z,100021.81
2023-01-13T18:29:53.359Z,100021.81
2023-01-13T18:32:22.506Z,100016.66
2023-01-13T18:34:53.969Z,100025.22
2023-01-13T18:37:26.450Z,100015.91
2023-01-13T18:39:53.828Z,100018.44
2023-01-13T18:42:39.658Z,100007.53
2023-01-13T18:45:07.661Z,100014.34
2023-01-13T18:47:39.079Z,100013.63
2023-01-13T18:50:06.965Z,100017.06
2023-01-13T18:52:34.557Z,100022.88
2023-01-13T18:55:01.692Z,100020.56
2023-01-13T18:57:29.447Z,100021.53
2023-01-13T18:59:59.232Z,100021.63
2023-01-13T19:02:27.780Z,100010.81
2023-01-13T19:04:55.113Z,100012.38
2023-01-13T19:07:28.580Z,100005.56
2023-01-13T19:09:56.124Z,100011.69
2023-01-13T19:12:26.425Z,100014.31
2023-01-13T19:14:57.810Z,100014.50
2023-01-13T19:17:26.568Z,100012.59
2023-01-13T19:19:56.130Z,100023.75
2023-01-13T19:22:27.387Z,100007.69
2023-01-13T19:24:54.570Z,100017.81
2023-01-13T19:27:22.012Z,100018.72
2023-01-13T19:29:52.645Z,100007.03
2023-01-13T19:32:23.599Z,100007.03
2023-01-13T19:34:51.310Z,100006.16
2023-01-13T19:37:19.484Z,100011.97
2023-01-13T19:39:46.558Z,100012.94
2023-01-13T19:42:32.194Z,100022.31
2023-01-13T19:45:17.733Z,100018.00
2023-01-13T19:47:45.983Z,100014.88
2023-01-13T19:50:14.081Z,100011.59
2023-01-13T19:52:42.529Z,100020.94
2023-01-13T19:55:11.927Z,100020.03
2023-01-13T19:57:43.454Z,100004.97
2023-01-13T20:00:11.953Z,100010.03
2023-01-13T20:02:44.835Z,100010.88
2023-01-13T20:05:12.862Z,100013.50
2023-01-13T20:07:39.742Z,100007.69
2023-01-13T20:10:07.259Z,100019.56
2023-01-13T20:12:34.063Z,100011.97
2023-01-13T20:15:00.931Z,100013.72
2023-01-13T20:17:27.886Z,100020.44
2023-01-13T20:19:55.339Z,100019.72
2023-01-13T20:22:22.287Z,100015.63
2023-01-13T20:24:54.928Z,100022.47
2023-01-13T20:27:23.884Z,100027.53
2023-01-13T20:29:51.147Z,100027.72
2023-01-13T20:32:17.957Z,100016.53
2023-01-13T20:34:44.836Z,100021.59
2023-01-13T20:37:12.729Z,100028.22
2023-01-13T20:39:41.342Z,100020.91
2023-01-13T20:42:28.683Z,100025.28
2023-01-13T20:44:56.870Z,100025.97
2023-01-13T20:47:24.001Z,100017.75
2023-01-13T20:49:50.913Z,100002.59
2023-01-13T20:52:17.697Z,100008.53
2023-01-13T20:54:44.562Z,100010.38
2023-01-13T20:57:11.864Z,100021.66
2023-01-13T20:59:39.343Z,100017.28
2023-01-13T21:02:11.108Z,100019.88
2023-01-13T21:04:37.723Z,100004.50
2023-01-13T21:07:04.478Z,100018.50
2023-01-13T21:09:32.303Z,100014.25
2023-01-13T21:12:18.166Z,100004.91
2023-01-13T21:15:03.740Z,100004.91
2023-01-13T21:17:50.669Z,100010.16
2023-01-13T21:20:18.010Z,100012.78
2023-01-13T21:22:46.687Z,100004.50
2023-01-13T21:25:14.222Z,100006.25
2023-01-13T21:27:43.897Z,100008.06
2023-01-13T21:30:14.870Z,100007.22
2023-01-13T21:32:43.302Z,100001.44
2023-01-13T21:35:10.697Z,100001.28
2023-01-13T21:37:40.269Z,100003.88
2023-01-13T21:40:10.721Z,100007.41
2023-01-13T21:42:55.912Z,100004.06
2023-01-13T21:45:41.952Z,99995.00
2023-01-13T21:48:08.878Z,100006.00
2023-01-13T21:50:37.912Z,100002.00
2023-01-13T21:53:05.784Z,100006.38
2023-01-13T21:55:32.949Z,100009.69
2023-01-13T21:58:13.947Z,100006.19
2023-01-13T22:00:43.048Z,99997.63
2023-01-13T22:03:11.725Z,99996.25
2023-01-13T22:05:39.008Z,99994.69
2023-01-13T22:08:06.311Z,99990.38
2023-01-13T22:10:34.211Z,99982.63
2023-01-13T22:13:22.309Z,99983.69
2023-01-13T22:15:49.153Z,99979.69
2023-01-13T22:18:18.125Z,99985.63
2023-01-13T22:20:45.270Z,99980.66
2023-01-13T22:23:12.208Z,99984.91
2023-01-13T22:25:38.982Z,99979.84
2023-01-13T22:28:06.178Z,99989.97
2023-01-13T22:30:33.339Z,99988.44
2023-01-13T22:33:00.664Z,99983.38
2023-01-13T22:35:27.522Z,99981.00
2023-01-13T22:37:54.352Z,99984.47
2023-01-13T22:40:21.143Z,99990.59
2023-01-13T22:42:47.950Z,99987.19
2023-01-13T22:45:14.862Z,99991.41
2023-01-13T22:47:41.864Z,99983.91
2023-01-13T22:50:12.582Z,99987.41
2023-01-13T22:52:39.559Z,99985.06
2023-01-13T22:55:06.967Z,99985.81
2023-01-13T22:57:36.584Z,99997.00
2023-01-13T23:00:14.927Z,99991.84
2023-01-13T23:02:42.011Z,99988.53
2023-01-13T23:05:09.074Z,99991.22
2023-01-13T23:07:36.237Z,100002.25
2023-01-13T23:10:04.141Z,99994.75
2023-01-13T23:12:31.107Z,99989.69
2023-01-13T23:14:57.897Z,99988.25
2023-01-13T23:17:24.673Z,99981.56
2023-01-13T23:19:51.426Z,99995.28
2023-01-13T23:22:18.225Z,99992.75
2023-01-13T23:24:45.603Z,99984.44
2023-01-13T23:27:12.388Z,99992.13
2023-01-13T23:29:39.207Z,99986.28
2023-01-13T23:32:06.097Z,99991.19
2023-01-13T23:34:32.860Z,99990.38
2023-01-13T23:36:59.602Z,99988.97
2023-01-13T23:39:26.450Z,99982.34
2023-01-13T23:41:53.280Z,99993.38
2023-01-13T23:44:20.234Z,99993.47
2023-01-13T23:46:47.069Z,99996.16
2023-01-13T23:49:13.881Z,99990.13
2023-01-13T23:51:40.711Z,99988.44
2023-01-13T23:54:07.551Z,99996.16
2023-01-13T23:56:39.165Z,99999.63
2023-01-13T23:59:06.454Z,100002.72
